createdAt,value
2022-11-05T00:00:37.303Z,98480.00
2022-11-05T00:03:24.582Z,98483.19
2022-11-05T00:06:12.662Z,98475.47
2022-11-05T00:08:59.800Z,98468.59
2022-11-05T00:11:42.480Z,98459.28
2022-11-05T00:14:24.886Z,98444.13
2022-11-05T00:16:54.974Z,98416.78
2022-11-05T00:19:23.363Z,98414.16
2022-11-05T00:22:09.231Z,98389.88
2022-11-05T00:25:10.087Z,98374.56
2022-11-05T00:27:38.698Z,98400.84
2022-11-05T00:30:09.337Z,98417.50
2022-11-05T00:32:40.310Z,98419.13
2022-11-05T00:35:09.664Z,98400.84
2022-11-05T00:37:38.400Z,98397.94
2022-11-05T00:40:07.990Z,98418.53
2022-11-05T00:42:54.234Z,98418.47
2022-11-05T00:45:22.842Z,98406.06
2022-11-05T00:48:10.886Z,98411.34
2022-11-05T00:50:39.335Z,98416.56
2022-11-05T00:53:08.712Z,98405.59
2022-11-05T00:55:39.187Z,98402.75
2022-11-05T00:58:10.290Z,98393.38
2022-11-05T01:00:40.736Z,98400.31
2022-11-05T01:03:13.038Z,98392.19
2022-11-05T01:05:43.368Z,98390.50
2022-11-05T01:08:12.739Z,98387.50
2022-11-05T01:10:42.252Z,98384.88
2022-11-05T01:13:13.194Z,98369.00
2022-11-05T01:15:42.246Z,98368.06
2022-11-05T01:18:12.869Z,98363.09
2022-11-05T01:20:41.604Z,98358.28
2022-11-05T01:23:13.470Z,98351.78
2022-11-05T01:25:42.362Z,98345.56
2022-11-05T01:28:11.418Z,98336.72
2022-11-05T01:30:40.170Z,98331.94
2022-11-05T01:33:09.221Z,98320.00
2022-11-05T01:35:40.270Z,98313.44
2022-11-05T01:38:09.651Z,98311.56
2022-11-05T01:40:38.169Z,98304.91
2022-11-05T01:43:15.608Z,98300.47
2022-11-05T01:45:45.826Z,98301.34
2022-11-05T01:48:18.589Z,98306.16
2022-11-05T01:50:54.739Z,98306.22
2022-11-05T01:53:30.924Z,98325.31
2022-11-05T01:56:04.371Z,98319.88
2022-11-05T01:58:38.778Z,98326.69
2022-11-05T02:01:07.390Z,98341.22
2022-11-05T02:03:36.919Z,98341.09
2022-11-05T02:06:09.473Z,98349.47
2022-11-05T02:08:51.983Z,98350.47
2022-11-05T02:11:21.347Z,98356.53
2022-11-05T02:13:50.961Z,98362.16
2022-11-05T02:16:36.253Z,98358.72
2022-11-05T02:19:26.031Z,98359.25
2022-11-05T02:22:24.141Z,98367.53
2022-11-05T02:25:17.498Z,98366.44
2022-11-05T02:28:08.833Z,98365.16
2022-11-05T02:30:47.773Z,98362.66
2022-11-05T02:33:31.131Z,98367.19
2022-11-05T02:36:19.365Z,98371.88
2022-11-05T02:39:00.743Z,98373.09
2022-11-05T02:41:36.844Z,98369.84
2022-11-05T02:44:20.204Z,98372.66
2022-11-05T02:46:58.891Z,98373.44
2022-11-05T02:49:41.233Z,98377.88
2022-11-05T02:52:17.823Z,98384.34
2022-11-05T02:54:55.268Z,98386.72
2022-11-05T02:57:24.035Z,98389.44
2022-11-05T03:00:01.727Z,98386.22
2022-11-05T03:02:32.162Z,98388.59
2022-11-05T03:05:01.354Z,98395.63
2022-11-05T03:07:39.250Z,98404.38
2022-11-05T03:10:40.646Z,98401.22
2022-11-05T03:13:18.482Z,98407.75
2022-11-05T03:15:57.940Z,98404.41
2022-11-05T03:18:37.538Z,98404.06
2022-11-05T03:21:10.991Z,98410.81
2022-11-05T03:23:45.734Z,98412.53
2022-11-05T03:26:19.682Z,98409.22
2022-11-05T03:28:57.712Z,98415.09
2022-11-05T03:31:28.434Z,98429.31
2022-11-05T03:34:01.064Z,98417.84
2022-11-05T03:36:33.546Z,98434.97
2022-11-05T03:39:07.380Z,98431.75
2022-11-05T03:41:39.562Z,98436.13
2022-11-05T03:44:12.144Z,98431.56
2022-11-05T03:46:45.424Z,98428.59
2022-11-05T03:49:20.411Z,98437.66
2022-11-05T03:51:54.691Z,98439.16
2022-11-05T03:54:23.966Z,98441.94
2022-11-05T03:57:02.435Z,98444.66
2022-11-05T03:59:33.380Z,98449.88
2022-11-05T04:02:04.289Z,98451.28
2022-11-05T04:04:34.653Z,98456.25
2022-11-05T04:07:20.634Z,98463.78
2022-11-05T04:10:06.650Z,98470.47
2022-11-05T04:12:52.258Z,98477.53
2022-11-05T04:15:20.975Z,98484.44
2022-11-05T04:17:48.338Z,98493.22
2022-11-05T04:20:36.234Z,98496.75
2022-11-05T04:23:24.624Z,98496.50
2022-11-05T04:25:53.379Z,98501.78
2022-11-05T04:28:41.859Z,98505.47
2022-11-05T04:31:09.544Z,98518.16
2022-11-05T04:33:38.020Z,98525.69
2022-11-05T04:36:09.024Z,98525.69
2022-11-05T04:38:37.460Z,98534.38
2022-11-05T04:41:14.953Z,98535.00
2022-11-05T04:43:43.789Z,98536.38
2022-11-05T04:46:12.485Z,98537.34
2022-11-05T04:48:41.032Z,98535.28
2022-11-05T04:51:11.022Z,98537.03
2022-11-05T04:53:39.455Z,98530.25
2022-11-05T04:56:12.282Z,98539.81
2022-11-05T04:58:41.640Z,98533.81
2022-11-05T05:01:14.269Z,98538.81
2022-11-05T05:03:42.803Z,98529.22
2022-11-05T05:06:13.027Z,98522.91
2022-11-05T05:08:41.526Z,98525.28
2022-11-05T05:11:13.426Z,98517.91
2022-11-05T05:13:41.850Z,98526.06
2022-11-05T05:16:17.735Z,98503.31
2022-11-05T05:18:46.647Z,98492.06
2022-11-05T05:21:35.811Z,98481.44
2022-11-05T05:24:04.265Z,98472.16
2022-11-05T05:26:33.173Z,98458.97
2022-11-05T05:29:01.625Z,98462.91
2022-11-05T05:31:30.442Z,98466.50
2022-11-05T05:33:58.950Z,98474.31
2022-11-05T05:36:29.391Z,98482.41
2022-11-05T05:38:57.851Z,98479.75
2022-11-05T05:41:26.891Z,98468.34
2022-11-05T05:43:55.466Z,98465.09
2022-11-05T05:46:24.218Z,98461.81
2022-11-05T05:48:53.711Z,98458.31
2022-11-05T05:51:22.509Z,98461.16
2022-11-05T05:53:53.807Z,98457.28
2022-11-05T05:56:22.855Z,98469.47
2022-11-05T05:58:51.838Z,98465.34
2022-11-05T06:01:20.808Z,98468.22
2022-11-05T06:03:50.388Z,98478.97
2022-11-05T06:06:21.100Z,98476.44
2022-11-05T06:08:49.993Z,98491.19
2022-11-05T06:11:20.253Z,98480.22
2022-11-05T06:13:48.806Z,98485.06
2022-11-05T06:16:19.450Z,98489.31
2022-11-05T06:18:48.205Z,98492.03
2022-11-05T06:21:19.273Z,98502.94
2022-11-05T06:23:48.397Z,98502.03
2022-11-05T06:26:19.706Z,98514.84
2022-11-05T06:28:48.208Z,98513.13
2022-11-05T06:31:17.796Z,98512.69
2022-11-05T06:33:47.287Z,98506.97
2022-11-05T06:36:19.376Z,98509.78
2022-11-05T06:38:48.120Z,98512.22
2022-11-05T06:41:16.865Z,98509.44
2022-11-05T06:43:46.583Z,98518.78
2022-11-05T06:46:15.583Z,98521.75
2022-11-05T06:48:44.013Z,98527.75
2022-11-05T06:51:12.611Z,98528.22
2022-11-05T06:53:41.143Z,98534.97
2022-11-05T06:56:10.280Z,98538.31
2022-11-05T06:58:38.764Z,98540.88
2022-11-05T07:01:11.064Z,98544.16
2022-11-05T07:03:40.284Z,98534.47
2022-11-05T07:06:09.385Z,98534.03
2022-11-05T07:08:39.135Z,98538.53
2022-11-05T07:11:08.257Z,98535.59
2022-11-05T07:13:36.598Z,98534.06
2022-11-05T07:16:05.836Z,98537.03
2022-11-05T07:18:35.891Z,98532.84
2022-11-05T07:21:04.869Z,98534.97
2022-11-05T07:23:33.548Z,98533.72
2022-11-05T07:26:02.625Z,98532.63
2022-11-05T07:28:31.078Z,98537.50
2022-11-05T07:31:00.267Z,98544.41
2022-11-05T07:33:33.706Z,98534.63
2022-11-05T07:36:07.119Z,98534.47
2022-11-05T07:38:35.535Z,98532.69
2022-11-05T07:41:04.488Z,98535.41
2022-11-05T07:43:32.929Z,98530.59
2022-11-05T07:46:01.413Z,98537.09
2022-11-05T07:48:30.141Z,98537.63
2022-11-05T07:50:58.556Z,98542.22
2022-11-05T07:53:29.393Z,98536.34
2022-11-05T07:55:59.004Z,98539.75
2022-11-05T07:58:27.805Z,98552.03
2022-11-05T08:00:57.837Z,98558.19
2022-11-05T08:03:26.738Z,98548.13
2022-11-05T08:05:55.291Z,98550.84
2022-11-05T08:08:24.509Z,98539.59
2022-11-05T08:10:54.933Z,98545.81
2022-11-05T08:13:23.965Z,98548.72
2022-11-05T08:15:52.421Z,98560.09
2022-11-05T08:18:21.298Z,98553.94
2022-11-05T08:20:49.798Z,98565.25
2022-11-05T08:23:18.591Z,98578.66
2022-11-05T08:25:47.420Z,98583.19
2022-11-05T08:28:17.701Z,98585.25
2022-11-05T08:30:50.183Z,98591.03
2022-11-05T08:33:19.232Z,98593.09
2022-11-05T08:35:48.248Z,98592.88
2022-11-05T08:38:19.044Z,98588.00
2022-11-05T08:40:55.940Z,98599.00
2022-11-05T08:43:27.236Z,98606.19
2022-11-05T08:45:56.531Z,98595.72
2022-11-05T08:48:25.520Z,98599.00
2022-11-05T08:50:54.201Z,98601.72
2022-11-05T08:53:22.986Z,98608.63
2022-11-05T08:55:51.774Z,98601.13
2022-11-05T08:58:20.873Z,98607.19
2022-11-05T09:00:51.506Z,98626.94
2022-11-05T09:03:20.403Z,98625.81
2022-11-05T09:05:49.330Z,98631.69
2022-11-05T09:08:20.040Z,98636.16
2022-11-05T09:10:50.446Z,98635.75
2022-11-05T09:13:20.471Z,98647.19
2022-11-05T09:15:51.357Z,98638.91
2022-11-05T09:18:21.567Z,98647.84
2022-11-05T09:20:50.033Z,98656.44
2022-11-05T09:23:19.016Z,98656.97
2022-11-05T09:25:47.802Z,98647.19
2022-11-05T09:28:20.353Z,98649.50
2022-11-05T09:30:51.751Z,98649.56
2022-11-05T09:33:24.055Z,98645.41
2022-11-05T09:35:53.838Z,98648.81
2022-11-05T09:38:22.824Z,98648.25
2022-11-05T09:40:58.237Z,98659.94
2022-11-05T09:43:32.231Z,98661.56
2022-11-05T09:46:08.668Z,98665.66
2022-11-05T09:48:40.442Z,98666.38
2022-11-05T09:51:12.733Z,98658.22
2022-11-05T09:53:42.462Z,98663.38
2022-11-05T09:56:22.125Z,98662.63
2022-11-05T09:58:56.082Z,98652.06
2022-11-05T10:01:30.661Z,98664.13
2022-11-05T10:04:03.520Z,98661.84
2022-11-05T10:06:32.786Z,98673.88
2022-11-05T10:09:07.480Z,98686.47
2022-11-05T10:11:43.077Z,98692.38
2022-11-05T10:14:18.091Z,98686.31
2022-11-05T10:16:54.195Z,98694.28
2022-11-05T10:19:25.384Z,98691.22
2022-11-05T10:22:06.608Z,98705.94
2022-11-05T10:24:37.172Z,98705.00
2022-11-05T10:27:07.005Z,98720.00
2022-11-05T10:29:36.975Z,98717.69
2022-11-05T10:32:07.472Z,98720.94
2022-11-05T10:34:41.024Z,98722.19
2022-11-05T10:37:12.635Z,98712.22
2022-11-05T10:39:41.443Z,98709.63
2022-11-05T10:42:31.613Z,98704.91
2022-11-05T10:45:29.024Z,98705.59
2022-11-05T10:48:22.129Z,98716.06
2022-11-05T10:50:51.844Z,98721.50
2022-11-05T10:53:23.529Z,98722.38
2022-11-05T10:55:54.039Z,98726.16
2022-11-05T10:58:28.938Z,98738.75
2022-11-05T11:01:11.653Z,98738.16
2022-11-05T11:03:47.225Z,98739.22
2022-11-05T11:06:24.906Z,98735.84
2022-11-05T11:08:55.025Z,98745.00
2022-11-05T11:11:30.014Z,98741.50
2022-11-05T11:14:04.177Z,98737.44
2022-11-05T11:16:39.327Z,98729.81
2022-11-05T11:19:26.385Z,98731.63
2022-11-05T11:22:17.851Z,98728.19
2022-11-05T11:24:49.005Z,98732.50
2022-11-05T11:27:23.242Z,98717.38
2022-11-05T11:29:57.884Z,98710.41
2022-11-05T11:32:32.765Z,98729.16
2022-11-05T11:35:03.609Z,98725.50
2022-11-05T11:37:37.244Z,98747.44
2022-11-05T11:40:16.285Z,98749.31
2022-11-05T11:42:48.424Z,98749.41
2022-11-05T11:45:19.692Z,98766.03
2022-11-05T11:47:50.805Z,98761.56
2022-11-05T11:50:40.477Z,98772.50
2022-11-05T11:53:35.534Z,98765.25
2022-11-05T11:56:24.075Z,98758.88
2022-11-05T11:58:54.973Z,98756.84
2022-11-05T12:02:12.018Z,98750.41
2022-11-05T12:05:06.918Z,98751.72
2022-11-05T12:07:49.188Z,98746.69
2022-11-05T12:10:44.739Z,98749.75
2022-11-05T12:13:46.258Z,98754.34
2022-11-05T12:16:26.270Z,98763.56
2022-11-05T12:19:04.367Z,98766.38
2022-11-05T12:21:59.177Z,98751.03
2022-11-05T12:24:56.631Z,98741.94
2022-11-05T12:27:45.316Z,98749.91
2022-11-05T12:30:17.147Z,98739.25
2022-11-05T12:33:05.308Z,98740.91
2022-11-05T12:35:49.006Z,98767.53
2022-11-05T12:38:33.210Z,98768.88
2022-11-05T12:41:19.673Z,98770.19
2022-11-05T12:44:17.016Z,98776.69
2022-11-05T12:46:55.547Z,98776.25
2022-11-05T12:49:48.665Z,98774.19
2022-11-05T12:52:56.308Z,98754.81
2022-11-05T12:55:28.545Z,98754.66
2022-11-05T12:58:09.968Z,98754.56
2022-11-05T13:00:44.112Z,98763.91
2022-11-05T13:03:26.961Z,98770.88
2022-11-05T13:06:06.076Z,98768.16
2022-11-05T13:08:41.067Z,98781.13
2022-11-05T13:11:21.015Z,98785.66
2022-11-05T13:14:01.602Z,98789.41
2022-11-05T13:16:35.842Z,98802.16
2022-11-05T13:19:13.411Z,98798.47
2022-11-05T13:21:44.062Z,98806.56
2022-11-05T13:24:20.022Z,98806.28
2022-11-05T13:26:55.179Z,98782.25
2022-11-05T13:29:30.171Z,98794.94
2022-11-05T13:32:05.962Z,98795.47
2022-11-05T13:34:37.583Z,98803.50
2022-11-05T13:37:27.260Z,98805.91
2022-11-05T13:39:59.815Z,98810.06
2022-11-05T13:42:48.019Z,98814.19
2022-11-05T13:45:49.466Z,98810.88
2022-11-05T13:48:50.567Z,98820.06
2022-11-05T13:51:38.874Z,98833.13
2022-11-05T13:54:47.094Z,98837.19
2022-11-05T13:57:41.430Z,98832.81
2022-11-05T14:00:17.556Z,98856.75
2022-11-05T14:02:52.626Z,98852.28
2022-11-05T14:05:28.876Z,98859.03
2022-11-05T14:08:00.213Z,98844.84
2022-11-05T14:10:37.109Z,98840.59
2022-11-05T14:13:21.855Z,98845.34
2022-11-05T14:15:58.922Z,98838.75
2022-11-05T14:18:43.987Z,98844.91
2022-11-05T14:21:32.533Z,98854.81
2022-11-05T14:24:19.580Z,98867.59
2022-11-05T14:27:28.885Z,98862.28
2022-11-05T14:29:57.368Z,98863.72
2022-11-05T14:32:29.612Z,98863.22
2022-11-05T14:35:04.116Z,98869.34
2022-11-05T14:37:39.101Z,98864.41
2022-11-05T14:40:28.565Z,98860.91
2022-11-05T14:43:00.319Z,98859.22
2022-11-05T14:45:31.950Z,98863.66
2022-11-05T14:48:03.332Z,98866.56
2022-11-05T14:50:38.119Z,98856.59
2022-11-05T14:53:27.732Z,98856.28
2022-11-05T14:56:02.969Z,98852.13
2022-11-05T14:58:37.107Z,98859.66
2022-11-05T15:01:08.336Z,98866.06
2022-11-05T15:04:00.371Z,98861.25
2022-11-05T15:06:35.802Z,98858.13
2022-11-05T15:09:20.422Z,98853.00
2022-11-05T15:12:09.184Z,98859.22
2022-11-05T15:14:49.019Z,98848.25
2022-11-05T15:17:22.986Z,98864.09
2022-11-05T15:19:53.536Z,98856.78
2022-11-05T15:22:33.887Z,98869.63
2022-11-05T15:25:05.015Z,98870.19
2022-11-05T15:27:58.376Z,98871.31
2022-11-05T15:30:27.383Z,98867.03
2022-11-05T15:32:56.102Z,98868.69
2022-11-05T15:35:27.898Z,98859.38
2022-11-05T15:38:02.403Z,98867.59
2022-11-05T15:40:32.620Z,98868.06
2022-11-05T15:43:19.614Z,98861.88
2022-11-05T15:46:03.306Z,98861.31
2022-11-05T15:48:32.610Z,98870.72
2022-11-05T15:51:01.851Z,98882.19
2022-11-05T15:54:24.318Z,98874.75
2022-11-05T15:56:52.851Z,98881.53
2022-11-05T15:59:23.398Z,98882.59
2022-11-05T16:01:56.491Z,98889.16
2022-11-05T16:04:29.000Z,98883.78
2022-11-05T16:07:02.107Z,98896.00
2022-11-05T16:09:34.969Z,98904.97
2022-11-05T16:12:31.049Z,98896.88
2022-11-05T16:15:03.896Z,98902.69
2022-11-05T16:17:45.658Z,98903.16
2022-11-05T16:20:23.092Z,98898.28
2022-11-05T16:22:54.071Z,98907.34
2022-11-05T16:25:30.088Z,98908.28
2022-11-05T16:27:59.888Z,98910.31
2022-11-05T16:30:29.429Z,98917.66
2022-11-05T16:33:05.252Z,98915.41
2022-11-05T16:35:34.330Z,98930.44
2022-11-05T16:38:03.973Z,98939.22
2022-11-05T16:40:33.904Z,98935.97
2022-11-05T16:43:17.490Z,98936.97
2022-11-05T16:45:45.860Z,98945.31
2022-11-05T16:48:15.601Z,98948.41
2022-11-05T16:50:44.548Z,98951.06
2022-11-05T16:53:14.818Z,98946.94
2022-11-05T16:55:46.253Z,98949.41
2022-11-05T16:58:21.051Z,98952.00
2022-11-05T17:00:50.399Z,98951.53
2022-11-05T17:03:19.967Z,98950.66
2022-11-05T17:05:48.669Z,98966.03
2022-11-05T17:08:17.332Z,98970.03
2022-11-05T17:10:47.228Z,98973.78
2022-11-05T17:13:16.770Z,98971.50
2022-11-05T17:15:46.663Z,98978.84
2022-11-05T17:18:18.967Z,98965.47
2022-11-05T17:20:49.692Z,98974.16
2022-11-05T17:23:21.537Z,98979.69
2022-11-05T17:25:54.872Z,98981.22
2022-11-05T17:28:23.857Z,98987.13
2022-11-05T17:30:53.347Z,98993.47
2022-11-05T17:33:23.792Z,98996.88
2022-11-05T17:35:54.286Z,98993.31
2022-11-05T17:38:24.216Z,98990.81
2022-11-05T17:40:54.341Z,98992.94
2022-11-05T17:43:23.380Z,98995.38
2022-11-05T17:45:53.799Z,98990.38
2022-11-05T17:48:22.545Z,98994.97
2022-11-05T17:50:51.830Z,98998.94
2022-11-05T17:53:20.819Z,98996.19
2022-11-05T17:55:49.845Z,99003.91
2022-11-05T17:58:19.974Z,98998.06
2022-11-05T18:00:49.373Z,98988.66
2022-11-05T18:03:18.189Z,98992.50
2022-11-05T18:05:46.629Z,98998.47
2022-11-05T18:08:15.327Z,98997.09
2022-11-05T18:10:43.870Z,98990.41
2022-11-05T18:13:13.255Z,98991.63
2022-11-05T18:15:43.681Z,98991.16
2022-11-05T18:18:12.655Z,98997.06
2022-11-05T18:20:43.140Z,99000.38
2022-11-05T18:23:12.117Z,98997.13
2022-11-05T18:25:41.674Z,98996.44
2022-11-05T18:28:10.960Z,99002.19
2022-11-05T18:30:39.850Z,99004.28
2022-11-05T18:33:10.271Z,99000.97
2022-11-05T18:35:42.517Z,99001.88
2022-11-05T18:38:11.966Z,99007.66
2022-11-05T18:40:40.780Z,99000.28
2022-11-05T18:43:10.027Z,99006.50
2022-11-05T18:45:38.831Z,99007.16
2022-11-05T18:48:09.628Z,99011.22
2022-11-05T18:50:40.865Z,99021.09
2022-11-05T18:53:09.850Z,99027.19
2022-11-05T18:55:39.896Z,99025.13
2022-11-05T18:58:08.833Z,99027.13
2022-11-05T19:00:39.632Z,99026.38
2022-11-05T19:03:09.853Z,99024.16
2022-11-05T19:05:38.256Z,99035.41
2022-11-05T19:08:06.954Z,99031.84
2022-11-05T19:10:35.323Z,99030.22
2022-11-05T19:13:03.935Z,99036.88
2022-11-05T19:15:32.585Z,99039.97
2022-11-05T19:18:01.397Z,99047.75
2022-11-05T19:20:36.652Z,99043.44
2022-11-05T19:23:06.539Z,99037.75
2022-11-05T19:25:35.554Z,99031.19
2022-11-05T19:28:04.472Z,99040.53
2022-11-05T19:30:32.864Z,99042.00
2022-11-05T19:33:01.533Z,99044.41
2022-11-05T19:35:31.489Z,99044.75
2022-11-05T19:38:01.596Z,99048.31
2022-11-05T19:40:30.024Z,99054.84
2022-11-05T19:42:59.135Z,99049.66
2022-11-05T19:45:44.071Z,99049.59
2022-11-05T19:48:19.017Z,99052.19
2022-11-05T19:50:49.665Z,99055.97
2022-11-05T19:53:18.629Z,99058.78
2022-11-05T19:55:47.076Z,99061.53
2022-11-05T19:58:15.815Z,99065.75
2022-11-05T20:00:44.408Z,99070.28
2022-11-05T20:03:13.675Z,99065.50
2022-11-05T20:05:42.319Z,99069.38
2022-11-05T20:08:12.822Z,99069.41
2022-11-05T20:10:41.404Z,99068.84
2022-11-05T20:13:13.128Z,99074.91
2022-11-05T20:15:44.769Z,99085.03
2022-11-05T20:18:13.982Z,99084.91
2022-11-05T20:20:42.837Z,99085.97
2022-11-05T20:23:13.889Z,99082.38
2022-11-05T20:25:42.724Z,99095.41
2022-11-05T20:28:11.599Z,99090.00
2022-11-05T20:30:40.538Z,99092.28
2022-11-05T20:33:09.296Z,99102.75
2022-11-05T20:35:40.311Z,99096.69
2022-11-05T20:38:09.677Z,99101.00
2022-11-05T20:40:42.182Z,99104.25
2022-11-05T20:43:10.863Z,99105.31
2022-11-05T20:45:39.666Z,99108.19
2022-11-05T20:48:08.426Z,99117.91
2022-11-05T20:50:41.548Z,99111.22
2022-11-05T20:53:11.124Z,99107.50
2022-11-05T20:55:45.684Z,99112.88
2022-11-05T20:58:16.608Z,99108.34
2022-11-05T21:00:51.230Z,99109.53
2022-11-05T21:03:20.681Z,99113.59
2022-11-05T21:05:50.260Z,99113.28
2022-11-05T21:08:20.114Z,99115.94
2022-11-05T21:10:51.353Z,99113.88
2022-11-05T21:13:20.640Z,99108.69
2022-11-05T21:15:50.468Z,99113.09
2022-11-05T21:18:20.182Z,99111.97
2022-11-05T21:20:49.013Z,99114.59
2022-11-05T21:23:17.921Z,99117.84
2022-11-05T21:25:47.313Z,99114.19
2022-11-05T21:28:17.469Z,99109.16
2022-11-05T21:30:47.417Z,99114.06
2022-11-05T21:33:18.032Z,99113.81
2022-11-05T21:35:49.695Z,99116.94
2022-11-05T21:38:18.847Z,99123.41
2022-11-05T21:40:48.203Z,99122.34
2022-11-05T21:43:18.435Z,99127.31
2022-11-05T21:45:46.944Z,99125.94
2022-11-05T21:48:16.089Z,99127.66
2022-11-05T21:51:02.078Z,99128.28
2022-11-05T21:53:48.380Z,99128.31
2022-11-05T21:56:37.584Z,99130.38
2022-11-05T21:59:25.234Z,99131.56
2022-11-05T22:02:01.327Z,99125.84
2022-11-05T22:04:30.602Z,99123.75
2022-11-05T22:06:59.087Z,99126.53
2022-11-05T22:09:28.661Z,99123.72
2022-11-05T22:11:57.247Z,99129.47
2022-11-05T22:14:27.748Z,99130.22
2022-11-05T22:16:56.695Z,99126.22
2022-11-05T22:19:26.307Z,99118.88
2022-11-05T22:21:54.906Z,99113.72
2022-11-05T22:24:24.372Z,99122.25
2022-11-05T22:26:52.818Z,99119.84
2022-11-05T22:29:21.479Z,99123.56
2022-11-05T22:31:51.366Z,99122.41
2022-11-05T22:34:20.484Z,99124.28
2022-11-05T22:36:49.073Z,99129.09
2022-11-05T22:39:18.348Z,99123.34
2022-11-05T22:41:46.880Z,99120.47
2022-11-05T22:44:16.682Z,99115.59
2022-11-05T22:46:45.334Z,99112.16
2022-11-05T22:49:15.372Z,99116.19
2022-11-05T22:51:44.156Z,99114.44
2022-11-05T22:54:13.531Z,99113.91
2022-11-05T22:56:43.886Z,99108.84
2022-11-05T22:59:14.917Z,99116.00
2022-11-05T23:01:45.215Z,99116.72
2022-11-05T23:04:16.227Z,99113.16
2022-11-05T23:07:02.522Z,99117.00
2022-11-05T23:09:51.023Z,99120.34
2022-11-05T23:12:25.985Z,99118.66
2022-11-05T23:14:56.278Z,99120.81
2022-11-05T23:17:42.373Z,99121.81
2022-11-05T23:20:34.446Z,99130.16
2022-11-05T23:23:20.599Z,99136.28
2022-11-05T23:25:49.478Z,99123.34
2022-11-05T23:28:21.278Z,99131.03
2022-11-05T23:31:07.329Z,99132.50
2022-11-05T23:33:36.707Z,99133.53
2022-11-05T23:36:24.845Z,99138.50
2022-11-05T23:38:53.274Z,99139.59
2022-11-05T23:41:39.435Z,99128.59
2022-11-05T23:44:27.082Z,99127.88
2022-11-05T23:47:13.054Z,99131.03
2022-11-05T23:49:41.614Z,99120.09
2022-11-05T23:52:12.047Z,99135.22
2022-11-05T23:54:40.363Z,99141.81
2022-11-05T23:57:09.195Z,99142.16
2022-11-05T23:59:37.621Z,99141.94
